sensor_id;sensor_type;location;lat;lon;timestamp;pressure;altitude;pressure_sealevel;temperature;humidity
41254;BME280;26987;59.928;30.306;2023-04-21T00:00:19;101928.31;;;4.70;86.88
41254;BME280;26987;59.928;30.306;2023-04-21T00:02:46;101912.38;;;4.70;87.37
41254;BME280;26987;59.928;30.306;2023-04-21T00:05:14;101916.56;;;4.72;87.60
41254;BME280;26987;59.928;30.306;2023-04-21T00:07:42;101915.72;;;4.72;87.44
41254;BME280;26987;59.928;30.306;2023-04-21T00:10:10;101910.53;;;4.70;87.80
41254;BME280;26987;59.928;30.306;2023-04-21T00:12:38;101912.38;;;4.70;88.25
41254;BME280;26987;59.928;30.306;2023-04-21T00:15:07;101910.94;;;4.65;88.25
41254;BME280;26987;59.928;30.306;2023-04-21T00:17:36;101919.06;;;4.64;88.30
41254;BME280;26987;59.928;30.306;2023-04-21T00:20:05;101908.28;;;4.65;89.17
41254;BME280;26987;59.928;30.306;2023-04-21T00:22:34;101907.34;;;4.66;89.35
41254;BME280;26987;59.928;30.306;2023-04-21T00:25:02;101898.53;;;4.56;89.64
41254;BME280;26987;59.928;30.306;2023-04-21T00:27:30;101895.44;;;4.51;89.91
41254;BME280;26987;59.928;30.306;2023-04-21T00:29:57;101906.50;;;4.56;90.46
41254;BME280;26987;59.928;30.306;2023-04-21T00:32:25;101901.03;;;4.58;90.26
41254;BME280;26987;59.928;30.306;2023-04-21T00:34:55;101900.19;;;4.57;90.70
41254;BME280;26987;59.928;30.306;2023-04-21T00:37:22;101893.47;;;4.53;90.86
41254;BME280;26987;59.928;30.306;2023-04-21T00:39:50;101896.97;;;4.53;91.25
41254;BME280;26987;59.928;30.306;2023-04-21T00:42:18;101889.56;;;4.47;91.76
41254;BME280;26987;59.928;30.306;2023-04-21T00:44:46;101881.03;;;4.44;92.13
41254;BME280;26987;59.928;30.306;2023-04-21T00:47:14;101880.44;;;4.40;92.50
41254;BME280;26987;59.928;30.306;2023-04-21T00:49:42;101889.72;;;4.46;93.56
41254;BME280;26987;59.928;30.306;2023-04-21T00:52:11;101877.66;;;4.41;93.50
41254;BME280;26987;59.928;30.306;2023-04-21T00:54:42;101868.97;;;4.29;94.04
41254;BME280;26987;59.928;30.306;2023-04-21T00:57:10;101882.00;;;4.43;93.83
41254;BME280;26987;59.928;30.306;2023-04-21T00:59:38;101886.47;;;4.42;94.09
41254;BME280;26987;59.928;30.306;2023-04-21T01:02:06;101882.81;;;4.43;95.10
41254;BME280;26987;59.928;30.306;2023-04-21T01:04:34;101880.16;;;4.43;94.15
41254;BME280;26987;59.928;30.306;2023-04-21T01:07:05;101887.06;;;4.46;95.14
41254;BME280;26987;59.928;30.306;2023-04-21T01:09:36;101882.69;;;4.45;95.00
41254;BME280;26987;59.928;30.306;2023-04-21T01:12:06;101863.25;;;4.34;95.65
41254;BME280;26987;59.928;30.306;2023-04-21T01:14:35;101859.19;;;4.30;95.14
41254;BME280;26987;59.928;30.306;2023-04-21T01:17:03;101887.19;;;4.54;94.41
41254;BME280;26987;59.928;30.306;2023-04-21T01:19:34;101885.09;;;4.58;94.87
41254;BME280;26987;59.928;30.306;2023-04-21T01:22:08;101873.06;;;4.53;94.48
41254;BME280;26987;59.928;30.306;2023-04-21T01:24:38;101851.25;;;4.50;95.03
41254;BME280;26987;59.928;30.306;2023-04-21T01:27:09;101852.66;;;4.54;94.64
41254;BME280;26987;59.928;30.306;2023-04-21T01:29:38;101881.31;;;4.70;94.93
41254;BME280;26987;59.928;30.306;2023-04-21T01:32:09;101882.16;;;4.71;94.01
41254;BME280;26987;59.928;30.306;2023-04-21T01:34:38;101881.16;;;4.72;94.24
41254;BME280;26987;59.928;30.306;2023-04-21T01:37:09;101870.81;;;4.69;94.41
41254;BME280;26987;59.928;30.306;2023-04-21T01:39:37;101872.09;;;4.74;93.93
41254;BME280;26987;59.928;30.306;2023-04-21T01:42:06;101855.72;;;4.69;93.58
41254;BME280;26987;59.928;30.306;2023-04-21T01:44:35;101834.34;;;4.51;93.72
41254;BME280;26987;59.928;30.306;2023-04-21T01:47:04;101867.88;;;4.72;93.57
41254;BME280;26987;59.928;30.306;2023-04-21T01:49:32;101871.25;;;4.74;93.03
41254;BME280;26987;59.928;30.306;2023-04-21T01:52:00;101867.59;;;4.75;93.32
41254;BME280;26987;59.928;30.306;2023-04-21T01:54:29;101864.00;;;4.76;93.52
41254;BME280;26987;59.928;30.306;2023-04-21T01:56:57;101864.28;;;4.73;93.48
41254;BME280;26987;59.928;30.306;2023-04-21T01:59:25;101859.91;;;4.72;93.26
41254;BME280;26987;59.928;30.306;2023-04-21T02:01:53;101864.56;;;4.70;93.04
41254;BME280;26987;59.928;30.306;2023-04-21T02:04:21;101863.69;;;4.69;93.45
41254;BME280;26987;59.928;30.306;2023-04-21T02:06:49;101849.72;;;4.57;93.25
41254;BME280;26987;59.928;30.306;2023-04-21T02:09:17;101873.47;;;4.69;92.51
41254;BME280;26987;59.928;30.306;2023-04-21T02:11:46;101873.34;;;4.70;93.64
41254;BME280;26987;59.928;30.306;2023-04-21T02:14:14;101873.47;;;4.69;93.65
41254;BME280;26987;59.928;30.306;2023-04-21T02:16:42;101882.16;;;4.71;94.02
41254;BME280;26987;59.928;30.306;2023-04-21T02:19:09;101861.19;;;4.67;94.23
41254;BME280;26987;59.928;30.306;2023-04-21T02:21:37;101870.53;;;4.72;94.43
41254;BME280;26987;59.928;30.306;2023-04-21T02:24:05;101853.91;;;4.70;94.66
41254;BME280;26987;59.928;30.306;2023-04-21T02:26:33;101865.53;;;4.78;95.08
41254;BME280;26987;59.928;30.306;2023-04-21T02:29:04;101848.19;;;4.64;95.48
41254;BME280;26987;59.928;30.306;2023-04-21T02:31:32;101860.06;;;4.80;94.60
41254;BME280;26987;59.928;30.306;2023-04-21T02:33:59;101862.72;;;4.80;95.54
41254;BME280;26987;59.928;30.306;2023-04-21T02:36:27;101854.19;;;4.86;94.97
41254;BME280;26987;59.928;30.306;2023-04-21T02:38:57;101851.13;;;4.91;94.59
41254;BME280;26987;59.928;30.306;2023-04-21T02:41:25;101851.78;;;4.93;94.42
41254;BME280;26987;59.928;30.306;2023-04-21T02:43:53;101854.16;;;4.96;94.19
41254;BME280;26987;59.928;30.306;2023-04-21T02:46:23;101840.16;;;5.04;93.59
41254;BME280;26987;59.928;30.306;2023-04-21T02:48:51;101840.69;;;5.17;92.67
41254;BME280;26987;59.928;30.306;2023-04-21T02:51:19;101842.59;;;5.45;91.25
41254;BME280;26987;59.928;30.306;2023-04-21T02:53:46;101836.09;;;5.58;90.91
41254;BME280;26987;59.928;30.306;2023-04-21T02:56:15;101837.13;;;5.75;89.91
41254;BME280;26987;59.928;30.306;2023-04-21T02:58:42;101815.63;;;5.86;87.60
41254;BME280;26987;59.928;30.306;2023-04-21T03:01:11;101829.25;;;6.48;85.72
41254;BME280;26987;59.928;30.306;2023-04-21T03:03:40;101832.97;;;7.18;81.92
41254;BME280;26987;59.928;30.306;2023-04-21T03:06:10;101839.34;;;7.95;78.01
41254;BME280;26987;59.928;30.306;2023-04-21T03:08:38;101842.28;;;8.60;74.08
41254;BME280;26987;59.928;30.306;2023-04-21T03:11:06;101835.06;;;9.27;70.40
41254;BME280;26987;59.928;30.306;2023-04-21T03:13:34;101838.78;;;9.58;67.55
41254;BME280;26987;59.928;30.306;2023-04-21T03:16:02;101848.09;;;9.30;68.25
41254;BME280;26987;59.928;30.306;2023-04-21T03:18:33;101842.97;;;8.87;70.29
41254;BME280;26987;59.928;30.306;2023-04-21T03:21:03;101838.09;;;8.49;71.57
41254;BME280;26987;59.928;30.306;2023-04-21T03:23:31;101846.22;;;8.14;72.53
41254;BME280;26987;59.928;30.306;2023-04-21T03:25:59;101840.03;;;8.05;73.38
41254;BME280;26987;59.928;30.306;2023-04-21T03:28:27;101837.31;;;7.97;73.58
41254;BME280;26987;59.928;30.306;2023-04-21T03:30:54;101836.44;;;7.80;74.28
41254;BME280;26987;59.928;30.306;2023-04-21T03:33:22;101840.78;;;7.81;74.58
41254;BME280;26987;59.928;30.306;2023-04-21T03:35:50;101845.72;;;7.67;75.03
41254;BME280;26987;59.928;30.306;2023-04-21T03:38:19;101847.69;;;7.57;75.93
41254;BME280;26987;59.928;30.306;2023-04-21T03:40:47;101845.66;;;7.51;76.25
41254;BME280;26987;59.928;30.306;2023-04-21T03:43:15;101840.84;;;7.54;76.04
41254;BME280;26987;59.928;30.306;2023-04-21T03:45:43;101841.56;;;7.65;75.76
41254;BME280;26987;59.928;30.306;2023-04-21T03:48:11;101835.53;;;7.63;75.68
41254;BME280;26987;59.928;30.306;2023-04-21T03:50:39;101842.06;;;7.68;75.84
41254;BME280;26987;59.928;30.306;2023-04-21T03:53:06;101842.84;;;7.61;76.00
41254;BME280;26987;59.928;30.306;2023-04-21T03:55:36;101837.88;;;7.57;76.40
41254;BME280;26987;59.928;30.306;2023-04-21T03:58:04;101842.34;;;7.57;76.08
41254;BME280;26987;59.928;30.306;2023-04-21T04:00:32;101825.00;;;7.53;75.95
41254;BME280;26987;59.928;30.306;2023-04-21T04:03:00;101834.25;;;7.75;75.08
41254;BME280;26987;59.928;30.306;2023-04-21T04:05:28;101846.34;;;7.96;74.39
41254;BME280;26987;59.928;30.306;2023-04-21T04:07:56;101844.56;;;8.13;73.36
41254;BME280;26987;59.928;30.306;2023-04-21T04:10:24;101844.59;;;8.38;72.53
41254;BME280;26987;59.928;30.306;2023-04-21T04:12:53;101843.81;;;8.63;71.55
41254;BME280;26987;59.928;30.306;2023-04-21T04:15:21;101840.97;;;8.81;70.18
41254;BME280;26987;59.928;30.306;2023-04-21T04:17:49;101842.94;;;9.12;69.00
41254;BME280;26987;59.928;30.306;2023-04-21T04:20:17;101838.84;;;9.50;66.78
41254;BME280;26987;59.928;30.306;2023-04-21T04:22:45;101841.66;;;10.20;64.16
41254;BME280;26987;59.928;30.306;2023-04-21T04:25:13;101842.50;;;10.91;61.11
41254;BME280;26987;59.928;30.306;2023-04-21T04:27:42;101846.09;;;11.52;58.57
41254;BME280;26987;59.928;30.306;2023-04-21T04:30:12;101851.84;;;12.01;57.26
41254;BME280;26987;59.928;30.306;2023-04-21T04:32:40;101849.28;;;11.92;56.01
41254;BME280;26987;59.928;30.306;2023-04-21T04:35:09;101844.66;;;12.23;55.05
41254;BME280;26987;59.928;30.306;2023-04-21T04:37:38;101831.53;;;12.35;53.87
41254;BME280;26987;59.928;30.306;2023-04-21T04:40:07;101820.50;;;13.02;51.73
41254;BME280;26987;59.928;30.306;2023-04-21T04:42:37;101834.97;;;13.30;50.09
41254;BME280;26987;59.928;30.306;2023-04-21T04:45:06;101832.69;;;13.27;50.24
41254;BME280;26987;59.928;30.306;2023-04-21T04:47:36;101837.75;;;13.43;50.16
41254;BME280;26987;59.928;30.306;2023-04-21T04:50:04;101830.13;;;14.03;47.99
41254;BME280;26987;59.928;30.306;2023-04-21T04:52:33;101825.34;;;15.33;44.72
41254;BME280;26987;59.928;30.306;2023-04-21T04:55:01;101809.97;;;16.51;41.71
41254;BME280;26987;59.928;30.306;2023-04-21T04:57:29;101808.94;;;16.77;40.81
41254;BME280;26987;59.928;30.306;2023-04-21T04:59:57;101814.91;;;16.35;41.11
41254;BME280;26987;59.928;30.306;2023-04-21T05:02:25;101811.97;;;16.37;41.38
41254;BME280;26987;59.928;30.306;2023-04-21T05:04:54;101812.19;;;16.86;40.52
41254;BME280;26987;59.928;30.306;2023-04-21T05:07:22;101809.31;;;16.81;39.99
41254;BME280;26987;59.928;30.306;2023-04-21T05:09:51;101805.22;;;16.46;40.76
41254;BME280;26987;59.928;30.306;2023-04-21T05:12:19;101810.81;;;16.51;40.93
41254;BME280;26987;59.928;30.306;2023-04-21T05:14:47;101810.31;;;17.06;39.61
41254;BME280;26987;59.928;30.306;2023-04-21T05:17:15;101818.03;;;17.46;38.70
41254;BME280;26987;59.928;30.306;2023-04-21T05:19:44;101822.94;;;17.87;37.85
41254;BME280;26987;59.928;30.306;2023-04-21T05:22:13;101820.66;;;18.57;36.77
41254;BME280;26987;59.928;30.306;2023-04-21T05:24:41;101818.72;;;19.41;34.85
41254;BME280;26987;59.928;30.306;2023-04-21T05:27:09;101815.75;;;20.31;33.47
41254;BME280;26987;59.928;30.306;2023-04-21T05:29:37;101808.16;;;20.67;32.80
41254;BME280;26987;59.928;30.306;2023-04-21T05:32:05;101814.53;;;21.12;31.88
41254;BME280;26987;59.928;30.306;2023-04-21T05:34:33;101819.53;;;21.21;31.75
41254;BME280;26987;59.928;30.306;2023-04-21T05:37:00;101817.53;;;21.11;31.66
41254;BME280;26987;59.928;30.306;2023-04-21T05:39:30;101814.63;;;20.26;32.90
41254;BME280;26987;59.928;30.306;2023-04-21T05:41:57;101806.16;;;20.11;32.98
41254;BME280;26987;59.928;30.306;2023-04-21T05:44:25;101809.50;;;20.47;32.56
41254;BME280;26987;59.928;30.306;2023-04-21T05:46:53;101815.75;;;20.65;32.20
41254;BME280;26987;59.928;30.306;2023-04-21T05:49:21;101796.88;;;19.95;33.10
41254;BME280;26987;59.928;30.306;2023-04-21T05:51:49;101785.41;;;19.34;33.88
41254;BME280;26987;59.928;30.306;2023-04-21T05:54:17;101785.72;;;18.73;34.77
41254;BME280;26987;59.928;30.306;2023-04-21T05:56:46;101793.91;;;18.18;36.42
41254;BME280;26987;59.928;30.306;2023-04-21T05:59:14;101788.63;;;18.11;36.23
41254;BME280;26987;59.928;30.306;2023-04-21T06:01:42;101788.03;;;18.21;36.06
41254;BME280;26987;59.928;30.306;2023-04-21T06:04:10;101790.22;;;18.67;35.39
41254;BME280;26987;59.928;30.306;2023-04-21T06:06:38;101792.91;;;19.03;34.92
41254;BME280;26987;59.928;30.306;2023-04-21T06:09:06;101795.38;;;19.87;33.59
41254;BME280;26987;59.928;30.306;2023-04-21T06:11:34;101795.56;;;19.97;33.24
41254;BME280;26987;59.928;30.306;2023-04-21T06:14:03;101794.13;;;19.48;34.16
41254;BME280;26987;59.928;30.306;2023-04-21T06:16:31;101791.28;;;18.78;34.83
41254;BME280;26987;59.928;30.306;2023-04-21T06:18:59;101774.72;;;18.32;35.67
41254;BME280;26987;59.928;30.306;2023-04-21T06:21:27;101803.84;;;18.24;36.05
41254;BME280;26987;59.928;30.306;2023-04-21T06:23:55;101794.19;;;18.40;36.07
41254;BME280;26987;59.928;30.306;2023-04-21T06:26:22;101798.22;;;18.74;35.24
41254;BME280;26987;59.928;30.306;2023-04-21T06:28:50;101776.63;;;18.67;34.91
41254;BME280;26987;59.928;30.306;2023-04-21T06:31:20;101797.28;;;18.68;35.35
41254;BME280;26987;59.928;30.306;2023-04-21T06:33:47;101789.50;;;18.05;36.19
41254;BME280;26987;59.928;30.306;2023-04-21T06:36:15;101785.50;;;17.46;37.21
41254;BME280;26987;59.928;30.306;2023-04-21T06:38:43;101795.91;;;17.31;37.86
41254;BME280;26987;59.928;30.306;2023-04-21T06:41:11;101786.41;;;17.40;37.87
41254;BME280;26987;59.928;30.306;2023-04-21T06:43:39;101791.53;;;17.48;37.58
41254;BME280;26987;59.928;30.306;2023-04-21T06:46:07;101790.00;;;16.96;38.66
41254;BME280;26987;59.928;30.306;2023-04-21T06:48:36;101790.91;;;16.64;39.40
41254;BME280;26987;59.928;30.306;2023-04-21T06:51:04;101788.06;;;16.34;39.85
41254;BME280;26987;59.928;30.306;2023-04-21T06:53:32;101790.69;;;16.15;40.32
41254;BME280;26987;59.928;30.306;2023-04-21T06:56:00;101790.66;;;15.83;41.04
41254;BME280;26987;59.928;30.306;2023-04-21T06:58:28;101779.28;;;15.67;41.58
41254;BME280;26987;59.928;30.306;2023-04-21T07:00:56;101781.81;;;15.62;41.69
41254;BME280;26987;59.928;30.306;2023-04-21T07:03:24;101771.09;;;15.42;42.19
41254;BME280;26987;59.928;30.306;2023-04-21T07:05:53;101779.88;;;15.23;42.97
41254;BME280;26987;59.928;30.306;2023-04-21T07:08:20;101776.84;;;14.93;43.38
41254;BME280;26987;59.928;30.306;2023-04-21T07:10:48;101768.13;;;14.57;44.29
41254;BME280;26987;59.928;30.306;2023-04-21T07:13:16;101771.25;;;14.20;45.68
41254;BME280;26987;59.928;30.306;2023-04-21T07:15:44;101763.97;;;14.00;46.28
41254;BME280;26987;59.928;30.306;2023-04-21T07:18:12;101762.47;;;13.84;46.94
41254;BME280;26987;59.928;30.306;2023-04-21T07:20:40;101765.94;;;13.71;47.20
41254;BME280;26987;59.928;30.306;2023-04-21T07:23:09;101762.66;;;13.69;47.45
41254;BME280;26987;59.928;30.306;2023-04-21T07:25:37;101769.22;;;13.53;47.85
41254;BME280;26987;59.928;30.306;2023-04-21T07:28:05;101759.78;;;13.35;48.48
41254;BME280;26987;59.928;30.306;2023-04-21T07:30:33;101740.22;;;13.19;48.38
41254;BME280;26987;59.928;30.306;2023-04-21T07:33:01;101764.97;;;12.94;49.88
41254;BME280;26987;59.928;30.306;2023-04-21T07:35:29;101757.34;;;12.69;50.79
41254;BME280;26987;59.928;30.306;2023-04-21T07:37:57;101763.25;;;12.58;51.24
41254;BME280;26987;59.928;30.306;2023-04-21T07:40:26;101756.56;;;12.47;52.27
41254;BME280;26987;59.928;30.306;2023-04-21T07:42:55;101759.69;;;12.51;52.09
41254;BME280;26987;59.928;30.306;2023-04-21T07:45:23;101742.59;;;12.36;52.24
41254;BME280;26987;59.928;30.306;2023-04-21T07:47:51;101753.81;;;12.40;52.59
41254;BME280;26987;59.928;30.306;2023-04-21T07:50:20;101756.16;;;12.50;52.75
41254;BME280;26987;59.928;30.306;2023-04-21T07:52:48;101753.91;;;12.54;52.25
41254;BME280;26987;59.928;30.306;2023-04-21T07:55:16;101744.31;;;12.44;52.67
41254;BME280;26987;59.928;30.306;2023-04-21T07:57:45;101746.88;;;12.53;52.57
41254;BME280;26987;59.928;30.306;2023-04-21T08:00:15;101738.91;;;12.38;52.96
41254;BME280;26987;59.928;30.306;2023-04-21T08:02:42;101748.97;;;12.29;53.60
41254;BME280;26987;59.928;30.306;2023-04-21T08:05:10;101736.91;;;12.24;53.80
41254;BME280;26987;59.928;30.306;2023-04-21T08:07:38;101736.28;;;12.22;53.99
41254;BME280;26987;59.928;30.306;2023-04-21T08:10:07;101729.00;;;12.16;54.41
41254;BME280;26987;59.928;30.306;2023-04-21T08:12:35;101730.38;;;12.34;54.11
41254;BME280;26987;59.928;30.306;2023-04-21T08:15:06;101718.75;;;12.27;53.81
41254;BME280;26987;59.928;30.306;2023-04-21T08:17:34;101733.91;;;12.34;54.36
41254;BME280;26987;59.928;30.306;2023-04-21T08:20:02;101736.44;;;12.43;53.57
41254;BME280;26987;59.928;30.306;2023-04-21T08:22:30;101724.53;;;12.52;53.40
41254;BME280;26987;59.928;30.306;2023-04-21T08:24:58;101737.41;;;12.57;53.11
41254;BME280;26987;59.928;30.306;2023-04-21T08:27:26;101714.75;;;12.44;53.56
41254;BME280;26987;59.928;30.306;2023-04-21T08:29:54;101727.41;;;12.51;53.77
41254;BME280;26987;59.928;30.306;2023-04-21T08:32:23;101730.34;;;12.56;53.63
41254;BME280;26987;59.928;30.306;2023-04-21T08:34:52;101730.94;;;12.51;53.45
41254;BME280;26987;59.928;30.306;2023-04-21T08:37:20;101729.13;;;12.58;53.45
41254;BME280;26987;59.928;30.306;2023-04-21T08:39:49;101723.94;;;12.57;53.48
41254;BME280;26987;59.928;30.306;2023-04-21T08:42:17;101713.13;;;12.50;53.17
41254;BME280;26987;59.928;30.306;2023-04-21T08:44:45;101716.66;;;12.51;53.61
41254;BME280;26987;59.928;30.306;2023-04-21T08:47:14;101718.09;;;12.53;53.21
41254;BME280;26987;59.928;30.306;2023-04-21T08:49:43;101714.44;;;12.61;53.29
41254;BME280;26987;59.928;30.306;2023-04-21T08:52:11;101713.44;;;12.62;53.14
41254;BME280;26987;59.928;30.306;2023-04-21T08:54:40;101707.72;;;12.79;52.43
41254;BME280;26987;59.928;30.306;2023-04-21T08:57:08;101692.03;;;12.82;51.80
41254;BME280;26987;59.928;30.306;2023-04-21T08:59:36;101684.78;;;12.83;51.26
41254;BME280;26987;59.928;30.306;2023-04-21T09:02:11;101691.03;;;12.90;51.15
41254;BME280;26987;59.928;30.306;2023-04-21T09:04:43;101700.34;;;12.88;51.58
41254;BME280;26987;59.928;30.306;2023-04-21T09:07:11;101701.06;;;12.74;51.83
41254;BME280;26987;59.928;30.306;2023-04-21T09:09:52;101697.03;;;12.92;52.29
41254;BME280;26987;59.928;30.306;2023-04-21T09:12:20;101703.38;;;12.78;52.01
41254;BME280;26987;59.928;30.306;2023-04-21T09:14:48;101694.03;;;12.73;51.72
41254;BME280;26987;59.928;30.306;2023-04-21T09:17:20;101697.13;;;12.70;52.09
41254;BME280;26987;59.928;30.306;2023-04-21T09:19:49;101692.59;;;12.71;51.93
41254;BME280;26987;59.928;30.306;2023-04-21T09:22:17;101699.41;;;12.73;51.81
41254;BME280;26987;59.928;30.306;2023-04-21T09:24:46;101669.50;;;12.55;51.80
41254;BME280;26987;59.928;30.306;2023-04-21T09:27:14;101662.72;;;12.59;51.80
41254;BME280;26987;59.928;30.306;2023-04-21T09:29:46;101635.81;;;12.59;51.46
41254;BME280;26987;59.928;30.306;2023-04-21T09:32:18;101686.75;;;13.03;51.82
41254;BME280;26987;59.928;30.306;2023-04-21T09:34:46;101662.81;;;12.79;51.36
41254;BME280;26987;59.928;30.306;2023-04-21T09:37:15;101682.56;;;13.00;51.61
41254;BME280;26987;59.928;30.306;2023-04-21T09:39:46;101689.75;;;13.28;51.45
41254;BME280;26987;59.928;30.306;2023-04-21T09:42:14;101673.00;;;13.33;50.17
41254;BME280;26987;59.928;30.306;2023-04-21T09:44:42;101689.88;;;13.55;50.07
41254;BME280;26987;59.928;30.306;2023-04-21T09:47:10;101675.97;;;13.65;49.48
41254;BME280;26987;59.928;30.306;2023-04-21T09:49:41;101682.63;;;13.69;49.45
41254;BME280;26987;59.928;30.306;2023-04-21T09:52:10;101670.19;;;13.68;49.42
41254;BME280;26987;59.928;30.306;2023-04-21T09:54:47;101667.06;;;13.78;49.33
41254;BME280;26987;59.928;30.306;2023-04-21T09:57:20;101676.22;;;13.91;49.22
41254;BME280;26987;59.928;30.306;2023-04-21T10:00:00;101672.28;;;14.00;48.98
41254;BME280;26987;59.928;30.306;2023-04-21T10:02:33;101672.06;;;13.88;48.73
41254;BME280;26987;59.928;30.306;2023-04-21T10:05:03;101656.31;;;13.92;48.45
41254;BME280;26987;59.928;30.306;2023-04-21T10:07:31;101656.94;;;14.14;48.01
41254;BME280;26987;59.928;30.306;2023-04-21T10:10:01;101669.16;;;14.30;47.76
41254;BME280;26987;59.928;30.306;2023-04-21T10:12:29;101662.94;;;14.36;47.05
41254;BME280;26987;59.928;30.306;2023-04-21T10:15:03;101662.50;;;14.53;47.09
41254;BME280;26987;59.928;30.306;2023-04-21T10:17:34;101661.25;;;14.56;46.82
41254;BME280;26987;59.928;30.306;2023-04-21T10:20:05;101648.97;;;14.60;46.66
41254;BME280;26987;59.928;30.306;2023-04-21T10:22:35;101652.91;;;14.64;46.34
41254;BME280;26987;59.928;30.306;2023-04-21T10:25:08;101648.31;;;14.85;46.10
41254;BME280;26987;59.928;30.306;2023-04-21T10:27:38;101649.56;;;14.82;45.87
41254;BME280;26987;59.928;30.306;2023-04-21T10:30:19;101638.69;;;15.03;45.91
41254;BME280;26987;59.928;30.306;2023-04-21T10:32:48;101640.41;;;14.90;45.38
41254;BME280;26987;59.928;30.306;2023-04-21T10:35:21;101637.63;;;15.10;45.36
41254;BME280;26987;59.928;30.306;2023-04-21T10:37:49;101632.38;;;15.22;44.71
41254;BME280;26987;59.928;30.306;2023-04-21T10:40:35;101631.78;;;15.53;44.53
41254;BME280;26987;59.928;30.306;2023-04-21T10:43:03;101637.84;;;15.41;43.83
41254;BME280;26987;59.928;30.306;2023-04-21T10:45:31;101637.69;;;15.36;43.74
41254;BME280;26987;59.928;30.306;2023-04-21T10:47:59;101599.97;;;15.16;43.80
41254;BME280;26987;59.928;30.306;2023-04-21T10:50:30;101626.25;;;15.34;43.59
41254;BME280;26987;59.928;30.306;2023-04-21T10:53:06;101624.78;;;15.38;43.64
41254;BME280;26987;59.928;30.306;2023-04-21T10:55:36;101623.53;;;15.41;43.47
41254;BME280;26987;59.928;30.306;2023-04-21T10:58:06;101627.66;;;15.43;43.37
41254;BME280;26987;59.928;30.306;2023-04-21T11:00:35;101624.78;;;15.38;43.12
41254;BME280;26987;59.928;30.306;2023-04-21T11:03:05;101615.59;;;15.46;43.28
41254;BME280;26987;59.928;30.306;2023-04-21T11:05:35;101590.34;;;15.26;43.08
41254;BME280;26987;59.928;30.306;2023-04-21T11:08:11;101620.00;;;15.40;43.44
41254;BME280;26987;59.928;30.306;2023-04-21T11:10:52;101602.81;;;15.28;43.37
41254;BME280;26987;59.928;30.306;2023-04-21T11:13:21;101607.94;;;15.04;43.85
41254;BME280;26987;59.928;30.306;2023-04-21T11:16:05;101609.78;;;15.03;44.45
41254;BME280;26987;59.928;30.306;2023-04-21T11:18:37;101608.22;;;14.88;44.44
41254;BME280;26987;59.928;30.306;2023-04-21T11:21:10;101604.50;;;14.83;44.76
41254;BME280;26987;59.928;30.306;2023-04-21T11:23:39;101607.38;;;14.88;44.55
41254;BME280;26987;59.928;30.306;2023-04-21T11:26:09;101601.53;;;14.91;44.86
41254;BME280;26987;59.928;30.306;2023-04-21T11:28:39;101601.31;;;14.99;44.69
41254;BME280;26987;59.928;30.306;2023-04-21T11:31:07;101595.66;;;15.08;44.44
41254;BME280;26987;59.928;30.306;2023-04-21T11:33:35;101590.44;;;15.13;44.35
41254;BME280;26987;59.928;30.306;2023-04-21T11:36:04;101556.69;;;14.90;44.39
41254;BME280;26987;59.928;30.306;2023-04-21T11:38:37;101576.66;;;15.21;44.45
41254;BME280;26987;59.928;30.306;2023-04-21T11:41:05;101584.59;;;15.16;44.44
41254;BME280;26987;59.928;30.306;2023-04-21T11:43:36;101569.25;;;15.10;44.33
41254;BME280;26987;59.928;30.306;2023-04-21T11:46:11;101572.50;;;15.25;44.43
41254;BME280;26987;59.928;30.306;2023-04-21T11:48:39;101577.78;;;15.07;44.46
41254;BME280;26987;59.928;30.306;2023-04-21T11:51:13;101571.56;;;15.06;44.82
41254;BME280;26987;59.928;30.306;2023-04-21T11:53:41;101574.34;;;14.93;45.15
41254;BME280;26987;59.928;30.306;2023-04-21T11:56:09;101574.19;;;14.81;45.15
41254;BME280;26987;59.928;30.306;2023-04-21T11:58:39;101580.66;;;14.73;45.72
41254;BME280;26987;59.928;30.306;2023-04-21T12:01:07;101577.13;;;14.66;45.75
41254;BME280;26987;59.928;30.306;2023-04-21T12:03:35;101571.13;;;14.57;45.89
41254;BME280;26987;59.928;30.306;2023-04-21T12:06:03;101583.94;;;14.75;45.77
41254;BME280;26987;59.928;30.306;2023-04-21T12:08:32;101577.72;;;14.74;45.73
41254;BME280;26987;59.928;30.306;2023-04-21T12:11:01;101580.22;;;14.83;45.47
41254;BME280;26987;59.928;30.306;2023-04-21T12:13:30;101570.47;;;14.82;45.43
41254;BME280;26987;59.928;30.306;2023-04-21T12:16:03;101580.97;;;14.97;45.48
41254;BME280;26987;59.928;30.306;2023-04-21T12:18:32;101569.34;;;14.90;45.31
41254;BME280;26987;59.928;30.306;2023-04-21T12:21:00;101577.09;;;14.86;45.38
41254;BME280;26987;59.928;30.306;2023-04-21T12:23:29;101568.75;;;14.87;45.30
41254;BME280;26987;59.928;30.306;2023-04-21T12:25:57;101557.38;;;14.72;45.46
41254;BME280;26987;59.928;30.306;2023-04-21T12:28:25;101565.69;;;14.70;45.83
41254;BME280;26987;59.928;30.306;2023-04-21T12:30:53;101565.72;;;14.63;45.66
41254;BME280;26987;59.928;30.306;2023-04-21T12:33:22;101563.41;;;14.67;45.85
41254;BME280;26987;59.928;30.306;2023-04-21T12:35:50;101557.78;;;14.82;45.47
41254;BME280;26987;59.928;30.306;2023-04-21T12:38:18;101559.03;;;14.80;45.43
41254;BME280;26987;59.928;30.306;2023-04-21T12:40:47;101545.78;;;14.71;45.62
41254;BME280;26987;59.928;30.306;2023-04-21T12:43:14;101550.72;;;14.74;45.73
41254;BME280;26987;59.928;30.306;2023-04-21T12:45:42;101551.59;;;14.68;45.74
41254;BME280;26987;59.928;30.306;2023-04-21T12:48:10;101551.81;;;14.60;46.28
41254;BME280;26987;59.928;30.306;2023-04-21T12:50:39;101558.28;;;14.59;46.46